Latest Weather Observations for Walpole North

IDW60801

Issued at 4:34 am WST Sunday 25 June 2017 (issued every 30 minutes, with the page automatically refreshed every 10 minutes)

About weather observations | Map of weather stations | Latest weather observations for WA | Other Formats
Station Details ID: 009998 Name: NORTH WALPOLE Lat: -34.95 Lon: 116.72 Height: 73.0 m
Data from the previous 72 hours. | See also: Recent months at Walpole North
Date/Time
WST
Temp
°C
App
Temp
°C
Dew
Point
°C
Rel
Hum
%
Delta-T
°C
Wind Press
QNH
hPa
Press
MSL
hPa
Rain since
9am
mm
Dir  Spd
km/h
Gust
km/h
Spd
kts
Gust
kts
25/04:30am 9.8 9.4 9.8 100 0.0 WNW 2 7 1 4 1027.4 1027.4 7.2
25/04:00am 9.9 8.8 9.9 100 0.0 WNW 6 7 3 4 1027.3 1027.3 7.2
25/03:30am 10.1 9.4 10.1 100 0.0 N 4 7 2 4 1027.5 1027.5 7.2
25/03:00am 9.9 9.9 9.9 100 0.0 CALM 0 0 0 0 1027.6 1027.6 7.2
25/02:30am 9.9 9.2 9.9 100 0.0 SSE 4 7 2 4 1027.8 1027.8 7.2
25/02:00am 10.2 9.2 10.2 100 0.0 SSE 6 7 3 4 1027.7 1027.7 7.0
25/01:30am 10.4 9.4 10.4 100 0.0 SSE 6 7 3 4 1027.8 1027.8 7.0
25/01:00am 10.3 9.1 10.3 100 0.0 SE 7 9 4 5 1027.9 1027.9 6.2
25/12:30am 10.3 9.7 10.3 100 0.0 SE 4 7 2 4 1028.1 1028.1 6.2
25/12:00am 10.0 9.3 10.0 100 0.0 SE 4 7 2 4 1028.1 1028.1 5.8
 
Date/Time
WST
Temp
°C
App
Temp
°C
Dew
Point
°C
Rel
Hum
%
Delta-T
°C
Wind Press
QNH
hPa
Press
MSL
hPa
Rain since
9am
mm
Dir  Spd
km/h
Gust
km/h
Spd
kts
Gust
kts
24/11:30pm 10.3 9.3 10.3 100 0.0 SE 6 7 3 4 1028.1 1028.1 5.8
24/11:00pm 10.3 10.4 10.3 100 0.0 CALM 0 0 0 0 1028.0 1028.0 5.8
24/10:30pm 10.6 10.4 10.6 100 0.0 NNE 2 6 1 3 1027.9 1027.9 5.8
24/10:00pm 10.6 10.1 10.6 100 0.0 NNE 4 9 2 5 1028.0 1028.0 5.2
24/09:30pm 10.6 10.1 10.6 100 0.0 NNE 4 7 2 4 1027.8 1027.8 5.2
24/09:00pm 10.3 9.2 10.1 99 0.1 NNE 6 9 3 5 1027.7 1027.7 5.0
24/08:30pm 10.8 9.9 10.6 99 0.1 SE 6 9 3 5 1027.7 1027.7 5.0
24/08:00pm 11.1 10.6 10.9 99 0.1 ESE 4 9 2 5 1027.7 1027.7 5.0
24/07:30pm 11.1 9.7 10.9 99 0.1 ESE 9 17 5 9 1027.5 1027.5 5.0
24/07:00pm 11.1 10.4 9.9 92 0.6 E 4 6 2 3 1027.3 1027.3 2.0
24/06:30pm 11.5 9.3 9.2 86 1.2 E 11 17 6 9 1027.0 1027.0 0.8
24/06:00pm 11.9 9.3 9.3 84 1.3 ESE 13 20 7 11 1026.8 1026.8 0.8
24/05:30pm 12.0 9.7 9.0 82 1.5 ESE 11 15 6 8 1026.6 1026.6 0.6
24/05:00pm 12.7 10.1 9.2 79 1.8 SE 13 19 7 10 1026.5 1026.5 0.4
24/04:30pm 13.0 10.7 9.1 77 2.0 SSE 11 24 6 13 1026.5 1026.5 0.4
24/04:00pm 13.3 11.0 9.0 75 2.2 SSE 11 22 6 12 1026.3 1026.3 0.4
24/03:30pm 13.3 11.3 8.8 74 2.3 SE 9 13 5 7 1026.3 1026.3 0.4
24/03:00pm 13.6 10.7 8.2 70 2.7 SE 13 17 7 9 1026.2 1026.2 0.4
24/02:30pm 14.7 12.0 9.1 69 2.9 SE 13 17 7 9 1026.1 1026.1 0.4
24/02:00pm 13.7 10.4 9.4 75 2.2 SE 17 22 9 12 1026.1 1026.1 0.4
24/01:30pm 13.5 12.3 11.6 88 1.0 SSE 9 17 5 9 1026.4 1026.4 0.4
24/01:00pm 12.7 11.0 11.3 91 0.7 SE 11 17 6 9 1026.8 1026.8 0.4
24/12:30pm 12.3 10.8 12.0 98 0.2 ESE 11 13 6 7 1027.2 1027.2 0.2
24/12:00pm 12.7 9.7 12.4 98 0.2 SE 20 30 11 16 1027.5 1027.5 0.0
24/11:30am 13.1 11.5 12.9 99 0.1 SE 13 24 7 13 1027.7 1027.7 0.0
24/11:00am 13.5 13.5 13.5 100 0.0 ESE 6 13 3 7 1027.9 1027.9 0.0
24/10:30am 12.2 11.7 12.2 100 0.0 ENE 6 9 3 5 1028.4 1028.4 0.0
24/10:00am 11.9 12.1 11.9 100 0.0 NE 2 7 1 4 1028.5 1028.5 0.0
24/09:30am 11.7 11.1 11.7 100 0.0 NE 6 9 3 5 1028.3 1028.3 0.0
24/09:00am 11.3 11.3 11.3 100 0.0 NE 2 6 1 3 1028.3 1028.3 2.2
24/08:30am 11.1 10.3 11.1 100 0.0 NE 6 7 3 4 1027.9 1027.9 2.2
24/08:00am 10.8 9.9 10.8 100 0.0 NE 6 9 3 5 1027.8 1027.8 2.0
24/07:30am 10.6 9.7 10.6 100 0.0 NE 6 7 3 4 1027.4 1027.4 2.0
24/07:00am 10.6 9.7 10.6 100 0.0 NE 6 7 3 4 1027.1 1027.1 1.6
24/06:30am 10.5 9.6 10.5 100 0.0 NE 6 7 3 4 1026.9 1026.9 1.6
24/06:00am 10.5 10.7 10.5 100 0.0 CALM 0 0 0 0 1026.7 1026.7 1.6
24/05:30am 10.3 10.4 10.3 100 0.0 CALM 0 0 0 0 1026.6 1026.6 1.6
24/05:00am 10.7 10.2 10.7 100 0.0 NE 4 7 2 4 1026.6 1026.6 1.6
24/04:30am 10.9 11.2 10.9 100 0.0 CALM 0 2 0 1 1026.7 1026.7 1.2
24/04:00am 10.9 11.1 10.7 99 0.1 CALM 0 6 0 3 1026.8 1026.8 0.2
24/03:30am 11.1 10.3 10.9 99 0.1 NE 6 7 3 4 1026.8 1026.8 0.2
24/03:00am 11.1 10.3 10.9 99 0.1 NE 6 7 3 4 1027.0 1027.0 0.2
24/02:30am 11.2 11.5 11.0 99 0.1 CALM 0 0 0 0 1027.0 1027.0 0.2
24/02:00am 11.4 10.1 11.1 98 0.2 ESE 9 15 5 8 1026.8 1026.8 0.2
24/01:30am 11.4 9.7 11.2 99 0.1 E 11 17 6 9 1026.6 1026.6 0.0
24/01:00am 11.2 9.8 10.9 98 0.2 ESE 9 13 5 7 1026.7 1026.7 0.0
24/12:30am 11.0 9.9 10.8 99 0.1 SE 7 11 4 6 1026.8 1026.8 0.0
24/12:00am 11.3 10.5 11.0 98 0.2 ESE 6 7 3 4 1027.0 1027.0 0.0
 
Date/Time
WST
Temp
°C
App
Temp
°C
Dew
Point
°C
Rel
Hum
%
Delta-T
°C
Wind Press
QNH
hPa
Press
MSL
hPa
Rain since
9am
mm
Dir  Spd
km/h
Gust
km/h
Spd
kts
Gust
kts
23/11:30pm 11.5 10.5 11.0 97 0.3 ESE 7 11 4 6 1027.0 1027.0 0.0
23/11:00pm 11.5 10.4 10.6 94 0.5 SE 7 9 4 5 1027.2 1027.2 0.0
23/10:30pm 12.2 8.7 10.3 88 1.0 SE 19 28 10 15 1027.3 1027.3 0.0
23/10:00pm 12.5 10.4 9.9 84 1.3 E 11 17 6 9 1027.2 1027.2 0.0
23/09:30pm 12.8 10.7 9.6 81 1.6 E 11 20 6 11 1027.0 1027.0 0.0
23/09:00pm 13.1 10.9 9.2 77 2.0 E 11 17 6 9 1027.0 1027.0 0.0
23/08:30pm 13.0 10.5 9.8 81 1.6 ESE 13 20 7 11 1026.9 1026.9 0.0
23/08:00pm 12.7 10.9 9.5 81 1.6 ENE 9 15 5 8 1026.8 1026.8 0.0
23/07:30pm 13.5 10.9 9.4 76 2.1 E 13 20 7 11 1026.6 1026.6 0.0
23/07:00pm 13.3 10.3 9.2 76 2.1 ESE 15 26 8 14 1026.3 1026.3 0.0
23/06:30pm 13.3 9.9 9.0 75 2.2 ESE 17 24 9 13 1026.1 1026.1 0.0
23/06:00pm 13.5 10.7 8.4 71 2.5 ESE 13 20 7 11 1025.8 1025.8 0.0
23/05:30pm 13.6 10.3 8.0 69 2.8 ESE 15 20 8 11 1025.5 1025.5 0.0
23/05:00pm 13.5 10.5 7.5 67 2.9 ESE 13 20 7 11 1025.3 1025.3 0.0
23/04:30pm 13.9 9.7 7.4 65 3.2 ESE 19 24 10 13 1025.2 1025.2 0.0
23/04:00pm 14.2 10.0 7.5 64 3.3 ESE 19 28 10 15 1025.1 1025.1 0.0
23/03:30pm 14.2 10.1 8.6 69 2.8 SE 20 26 11 14 1025.3 1025.3 0.0
23/03:00pm 14.2 10.6 8.4 68 2.9 SE 17 24 9 13 1025.1 1025.1 0.0
23/02:30pm 14.4 10.7 9.6 73 2.5 SE 19 28 10 15 1025.0 1025.0 0.0
23/02:00pm 14.5 9.8 9.1 70 2.7 SE 24 35 13 19 1025.1 1025.1 0.0
23/01:30pm 14.7 11.0 9.5 71 2.7 SE 19 26 10 14 1025.1 1025.1 0.0
23/01:00pm 14.2 10.1 8.6 69 2.8 ESE 20 32 11 17 1025.3 1025.3 0.0
23/12:30pm 14.0 9.2 9.0 72 2.5 ESE 24 37 13 20 1025.4 1025.4 0.0
23/12:00pm 14.9 11.2 10.3 74 2.4 ESE 20 32 11 17 1025.7 1025.7 0.0
23/11:30am 13.4 7.9 9.3 76 2.1 SE 28 46 15 25 1025.9 1025.9 0.0
23/11:00am 14.7 10.3 8.9 68 2.9 SE 22 33 12 18 1026.0 1026.0 0.0
23/10:30am 14.1 10.1 8.9 71 2.6 SE 20 32 11 17 1026.1 1026.1 0.0
23/10:00am 13.9 9.0 8.3 69 2.8 SE 24 32 13 17 1026.0 1026.0 0.0
23/09:30am 13.8 8.9 8.6 71 2.6 SE 24 35 13 19 1025.7 1025.7 0.0
23/09:00am 13.4 7.8 8.9 74 2.3 SE 28 39 15 21 1025.3 1025.3 15.4
23/08:30am 13.3 7.2 8.2 71 2.5 SE 30 41 16 22 1024.9 1024.9 15.4
23/08:11am 13.4 7.9 9.1 75 2.2 SE 28 46 15 25 1024.6 1024.6 15.4
23/08:00am 13.3 8.6 9.2 76 2.1 SE 24 37 13 20 1024.5 1024.5 15.4
23/07:30am 13.4 8.4 9.6 78 1.9 SE 26 39 14 21 1024.0 1024.0 15.4
23/07:00am 13.5 8.6 10.1 80 1.8 SE 26 41 14 22 1023.7 1023.7 15.4
23/06:46am 13.5 8.3 10.1 80 1.8 SE 28 46 15 25 1023.5 1023.5 15.4
23/06:30am 13.5 8.8 10.5 82 1.6 SE 26 41 14 22 1023.2 1023.2 15.4
23/06:00am 13.6 8.1 10.6 82 1.6 SE 30 43 16 23 1022.9 1022.9 15.4
23/05:30am 13.7 8.3 11.0 84 1.4 SE 30 48 16 26 1022.3 1022.3 15.4
23/05:00am 13.6 8.1 11.7 88 1.0 SE 32 50 17 27 1022.1 1022.1 15.4
23/04:30am 13.2 8.7 12.7 97 0.3 SE 28 46 15 25 1022.1 1022.1 15.4
23/04:09am 13.2 8.8 13.0 99 0.1 SE 28 46 15 25 1021.6 1021.6 15.2
23/04:00am 13.4 8.4 12.3 93 0.6 SE 30 46 16 25 1021.8 1021.8 14.8
23/03:30am 14.0 8.0 12.0 88 1.1 SE 35 56 19 30 1021.6 1021.6 13.8
23/03:11am 13.8 9.3 12.5 92 0.7 SE 28 46 15 25 1021.3 1021.3 13.8
23/03:00am 14.1 9.3 12.8 92 0.7 SE 30 43 16 23 1021.3 1021.3 13.6
23/02:30am 13.9 9.3 13.4 97 0.3 ESE 30 43 16 23 1021.1 1021.1 13.6
23/02:00am 14.0 9.9 13.8 99 0.1 SE 28 39 15 21 1021.0 1021.0 13.4
23/01:30am 14.3 9.8 12.5 89 1.0 SE 28 48 15 26 1020.7 1020.7 12.8
23/01:00am 14.5 9.6 12.4 87 1.1 ESE 30 46 16 25 1020.6 1020.5 12.0
23/12:33am 14.0 9.5 12.7 92 0.7 SE 28 48 15 26 1020.7 1020.7 12.0
23/12:30am 13.9 9.8 12.6 92 0.7 SE 26 39 14 21 1020.7 1020.7 12.0
23/12:14am 14.0 9.5 12.7 92 0.7 ESE 28 54 15 29 1020.6 1020.5 11.8
23/12:00am 14.1 10.1 13.0 93 0.6 ESE 26 35 14 19 1020.7 1020.7 11.2
 
Date/Time
WST
Temp
°C
App
Temp
°C
Dew
Point
°C
Rel
Hum
%
Delta-T
°C
Wind Press
QNH
hPa
Press
MSL
hPa
Rain since
9am
mm
Dir  Spd
km/h
Gust
km/h
Spd
kts
Gust
kts
22/11:30pm 14.2 11.3 14.0 99 0.1 ESE 22 33 12 18 1020.2 1020.1 11.2
22/11:14pm 14.0 9.9 13.8 99 0.1 SE 28 48 15 26 1020.4 1020.3 11.2
22/11:00pm 13.9 9.4 13.7 99 0.1 SE 30 43 16 23 1020.4 1020.3 10.2
22/10:30pm 14.9 9.5 12.8 87 1.2 SE 33 52 18 28 1019.9 1019.8 7.4
22/10:18pm 15.5 10.8 12.1 80 1.9 SE 28 48 15 26 1020.0 1019.9 7.4
22/10:00pm 14.7 12.0 11.8 83 1.6 ESE 17 28 9 15 1019.9 1019.8 7.4
22/09:30pm 15.3 11.2 11.3 77 2.1 ESE 24 41 13 22 1019.6 1019.6 7.4
22/09:00pm 15.1 11.6 12.1 82 1.6 ESE 22 35 12 19 1019.5 1019.5 7.4
22/08:30pm 14.9 11.2 12.6 86 1.3 ESE 24 33 13 18 1019.1 1019.1 7.4
22/08:00pm 14.6 10.7 12.1 85 1.4 SE 24 37 13 20 1018.9 1018.9 7.4
22/07:30pm 15.1 11.3 11.3 78 2.0 ESE 22 28 12 15 1018.4 1018.4 7.2
22/07:16pm 15.2 10.3 11.2 77 2.1 ESE 28 46 15 25 1018.2 1018.2 7.2
22/07:00pm 14.9 11.3 11.7 81 1.7 ESE 22 30 12 16 1018.1 1018.1 7.2
22/06:30pm 14.1 10.6 10.9 81 1.7 ESE 20 28 11 15 1017.8 1017.8 7.2
22/06:00pm 14.1 10.4 11.6 85 1.3 ESE 22 32 12 17 1017.3 1017.3 7.2
22/05:30pm 14.1 9.3 11.8 86 1.2 ESE 28 43 15 23 1017.1 1017.1 7.2
22/05:00pm 14.2 9.7 12.6 90 0.9 ESE 28 46 15 25 1016.7 1016.7 7.2
22/04:30pm 15.0 9.5 12.5 85 1.4 ESE 33 54 18 29 1016.5 1016.5 6.8
22/04:17pm 14.6 9.7 13.8 95 0.4 ESE 32 52 17 28 1016.3 1016.3 6.8
22/04:00pm 14.6 11.1 14.4 99 0.1 ESE 26 37 14 20 1016.1 1016.1 6.8
22/03:30pm 14.0 9.9 13.8 99 0.1 ESE 28 44 15 24 1016.2 1016.2 6.4
22/03:00pm 13.9 8.8 13.1 95 0.4 ESE 32 56 17 30 1015.7 1015.7 1.4
22/02:57pm 13.9 8.8 13.1 95 0.4 SE 32 56 17 30 1015.8 1015.8 1.2
22/02:56pm 14.0 8.9 13.2 95 0.4 SE 32 56 17 30 1015.7 1015.7 1.2
22/02:30pm 14.5 11.8 13.4 93 0.6 SE 20 35 11 19 1015.1 1015.1 0.4
22/02:00pm 15.6 10.8 11.8 78 2.1 SE 28 43 15 23 1014.6 1014.6 0.0
22/01:30pm 17.6 14.1 12.3 71 2.9 ESE 22 44 12 24 1014.3 1014.3 0.0
22/01:00pm 18.3 15.2 13.4 73 2.8 SE 22 33 12 18 1014.1 1014.1 0.0
22/12:30pm 16.9 14.4 12.2 74 2.6 ESE 17 26 9 14 1014.2 1014.2 0.0
22/12:00pm 17.3 12.7 10.9 66 3.4 ESE 26 35 14 19 1014.3 1014.3 0.0
22/11:30am 17.3 13.4 10.9 66 3.5 ESE 22 32 12 17 1014.5 1014.5 0.0
22/11:00am 17.0 14.1 11.1 68 3.2 ESE 17 26 9 14 1014.6 1014.6 0.0
22/10:30am 16.0 13.6 9.9 67 3.2 E 13 17 7 9 1014.7 1014.7 0.0
22/10:00am 15.5 13.8 9.8 69 3.0 ENE 9 19 5 10 1014.5 1014.5 0.0
22/09:30am 14.6 12.4 9.2 70 2.8 NE 11 17 6 9 1014.0 1014.0 0.0
22/09:00am 14.2 12.4 9.4 73 2.5 ENE 9 15 5 8 1014.2 1014.2 0.0
22/08:30am 12.8 10.0 8.7 76 2.1 ENE 13 19 7 10 1014.2 1014.2 0.0
22/08:00am 11.9 9.1 8.4 79 1.7 ENE 13 19 7 10 1014.0 1014.0 0.0
22/07:30am 11.5 9.0 8.0 79 1.7 ENE 11 17 6 9 1013.5 1013.5 0.0
22/07:00am 11.4 8.8 7.7 78 1.8 ENE 11 17 6 9 1013.0 1013.0 0.0
22/06:30am 12.3 9.4 8.2 76 2.0 ENE 13 17 7 9 1012.8 1012.8 0.0
22/06:00am 12.2 9.3 8.3 77 1.9 ENE 13 19 7 10 1012.4 1012.4 0.0
22/05:30am 11.9 9.8 8.2 78 1.8 E 9 15 5 8 1012.2 1012.2 0.0
22/05:00am 12.2 9.3 8.3 77 1.9 ENE 13 19 7 10 1011.7 1011.7 0.0

Other Formats:

Comma delimited format used in spreadsheet applications
http://www.bom.gov.au/fwo/IDW60801/IDW60801.95647.axf

JavaScript Object Notation format (JSON) in row-major order
http://www.bom.gov.au/fwo/IDW60801/IDW60801.95647.json